createdAt,value
2023-01-29T00:02:09.432Z,2.30
2023-01-29T00:04:36.206Z,2.00
2023-01-29T00:07:02.955Z,2.25
2023-01-29T00:09:29.679Z,2.10
2023-01-29T00:11:56.839Z,2.30
2023-01-29T00:14:23.515Z,2.25
2023-01-29T00:16:50.191Z,2.55
2023-01-29T00:19:17.486Z,1.70
2023-01-29T00:21:44.361Z,2.08
2023-01-29T00:24:11.648Z,1.88
2023-01-29T00:26:42.456Z,2.63
2023-01-29T00:29:09.213Z,1.75
2023-01-29T00:31:35.997Z,2.00
2023-01-29T00:34:03.783Z,1.83
2023-01-29T00:36:30.479Z,2.30
2023-01-29T00:38:59.661Z,2.40
2023-01-29T00:41:47.098Z,2.20
2023-01-29T00:44:32.479Z,2.03
2023-01-29T00:46:59.910Z,1.85
2023-01-29T00:49:26.656Z,2.03
2023-01-29T00:52:11.902Z,2.63
2023-01-29T00:54:38.563Z,3.55
2023-01-29T00:57:05.259Z,2.17
2023-01-29T00:59:32.052Z,3.20
2023-01-29T01:02:17.527Z,3.00
2023-01-29T01:04:44.252Z,2.05
2023-01-29T01:09:55.492Z,2.55
2023-01-29T01:12:22.575Z,2.65
2023-01-29T01:14:49.412Z,2.40
2023-01-29T01:17:16.415Z,2.67
2023-01-29T01:19:43.360Z,2.38
2023-01-29T01:22:10.185Z,2.63
2023-01-29T01:24:37.611Z,2.60
2023-01-29T01:27:04.449Z,2.65
2023-01-29T01:29:40.090Z,2.50
2023-01-29T01:32:32.068Z,2.20
2023-01-29T01:35:00.935Z,2.72
2023-01-29T01:37:33.606Z,2.92
2023-01-29T01:40:00.746Z,2.10
2023-01-29T01:42:32.114Z,2.75
2023-01-29T01:47:44.937Z,3.00
2023-01-29T01:50:21.051Z,2.22
2023-01-29T01:53:21.112Z,2.47
2023-01-29T01:55:57.439Z,2.80
2023-01-29T01:58:51.723Z,3.40
2023-01-29T02:01:26.400Z,2.53
2023-01-29T02:04:25.403Z,2.78
2023-01-29T02:07:12.600Z,3.00
2023-01-29T02:09:49.124Z,2.58
2023-01-29T02:12:17.216Z,2.10
2023-01-29T02:14:44.839Z,2.35
2023-01-29T02:17:17.302Z,3.50
2023-01-29T02:20:24.398Z,2.25
2023-01-29T02:23:09.542Z,2.38
2023-01-29T02:26:06.840Z,3.10
2023-01-29T02:28:50.121Z,3.25
2023-01-29T02:31:35.313Z,2.60
2023-01-29T02:34:20.723Z,2.50
2023-01-29T02:36:54.449Z,2.53
2023-01-29T02:39:29.479Z,2.35
2023-01-29T02:42:13.069Z,3.00
2023-01-29T02:44:47.855Z,2.80
2023-01-29T02:47:39.557Z,3.20
2023-01-29T02:53:18.663Z,3.00
2023-01-29T02:55:54.853Z,2.97
2023-01-29T02:58:29.864Z,2.42
2023-01-29T03:01:06.802Z,3.13
2023-01-29T03:03:40.367Z,2.83
2023-01-29T03:06:20.866Z,2.47
2023-01-29T03:09:02.456Z,3.15
2023-01-29T03:14:06.280Z,2.67
2023-01-29T03:16:45.707Z,3.10
2023-01-29T03:19:24.023Z,2.70
2023-01-29T03:21:59.562Z,2.65
2023-01-29T03:25:09.597Z,3.28
2023-01-29T03:28:04.569Z,2.47
2023-01-29T03:30:54.952Z,2.75
2023-01-29T03:33:24.655Z,2.80
2023-01-29T03:35:56.513Z,3.63
2023-01-29T03:38:29.610Z,3.35
2023-01-29T03:41:04.585Z,2.40
2023-01-29T03:43:50.244Z,3.08
2023-01-29T03:46:29.216Z,2.88
2023-01-29T03:49:04.251Z,3.15
2023-01-29T03:51:37.905Z,2.63
2023-01-29T03:54:32.221Z,2.70
2023-01-29T03:57:07.687Z,2.67
2023-01-29T03:59:46.401Z,3.45
2023-01-29T04:02:28.088Z,2.85
2023-01-29T04:05:01.888Z,2.33
2023-01-29T04:07:33.615Z,3.45
2023-01-29T04:10:09.894Z,2.83
2023-01-29T04:12:42.675Z,2.17
2023-01-29T04:15:15.303Z,3.40
2023-01-29T04:17:46.713Z,3.28
2023-01-29T04:22:44.923Z,2.17
2023-01-29T04:25:26.472Z,2.83
2023-01-29T04:30:44.800Z,3.08
2023-01-29T04:33:15.044Z,1.90
2023-01-29T04:36:40.017Z,2.08
2023-01-29T04:39:29.922Z,2.85
2023-01-29T04:42:06.944Z,2.55
2023-01-29T04:44:49.794Z,3.42
2023-01-29T04:47:37.092Z,2.38
2023-01-29T04:50:25.381Z,2.78
2023-01-29T04:53:10.666Z,2.95
2023-01-29T04:55:51.824Z,2.15
2023-01-29T04:58:37.031Z,2.28
2023-01-29T05:01:07.009Z,2.30
2023-01-29T05:03:36.164Z,2.05
2023-01-29T05:06:04.177Z,2.50
2023-01-29T05:08:32.777Z,3.00
2023-01-29T05:11:00.244Z,2.03
2023-01-29T05:13:30.796Z,2.85
2023-01-29T05:16:00.646Z,1.90
2023-01-29T05:18:28.546Z,3.30
2023-01-29T05:20:57.595Z,2.33
2023-01-29T05:23:24.472Z,2.60
2023-01-29T05:25:52.791Z,2.35
2023-01-29T05:28:19.899Z,2.72
2023-01-29T05:30:48.913Z,3.05
2023-01-29T05:33:30.434Z,3.35
2023-01-29T05:35:59.742Z,2.15
2023-01-29T05:38:26.551Z,2.13
2023-01-29T05:40:59.103Z,3.05
2023-01-29T05:43:26.218Z,2.50
2023-01-29T05:45:58.000Z,3.15
2023-01-29T05:48:29.549Z,2.50
2023-01-29T05:51:05.605Z,2.72
2023-01-29T05:53:32.940Z,2.58
2023-01-29T05:56:04.869Z,2.25
2023-01-29T05:58:32.874Z,3.08
2023-01-29T06:01:15.318Z,2.05
2023-01-29T06:03:42.295Z,3.85
2023-01-29T06:06:09.256Z,2.40
2023-01-29T06:08:36.057Z,3.30
2023-01-29T06:11:06.498Z,2.85
2023-01-29T06:13:33.204Z,2.03
2023-01-29T06:15:59.927Z,1.92
2023-01-29T06:18:26.629Z,2.53
2023-01-29T06:20:53.319Z,2.92
2023-01-29T06:23:20.006Z,2.75
2023-01-29T06:25:46.826Z,3.28
2023-01-29T06:28:13.501Z,2.63
2023-01-29T06:30:40.176Z,1.73
2023-01-29T06:33:06.885Z,3.13
2023-01-29T06:35:33.600Z,2.42
2023-01-29T06:38:00.378Z,3.13
2023-01-29T06:40:27.119Z,3.25
2023-01-29T06:42:53.856Z,2.47
2023-01-29T06:45:20.719Z,3.22
2023-01-29T06:47:47.500Z,3.20
2023-01-29T06:50:14.425Z,3.95
2023-01-29T06:52:41.245Z,2.72
2023-01-29T06:55:08.481Z,2.15
2023-01-29T06:57:35.504Z,3.17
2023-01-29T07:00:02.373Z,2.90
2023-01-29T07:02:29.164Z,3.38
2023-01-29T07:04:55.930Z,2.60
2023-01-29T07:07:22.627Z,2.53
2023-01-29T07:09:49.365Z,2.72
2023-01-29T07:12:16.075Z,3.15
2023-01-29T07:14:42.729Z,2.25
2023-01-29T07:17:15.014Z,3.03
2023-01-29T07:19:48.407Z,2.58
2023-01-29T07:22:18.572Z,2.38
2023-01-29T07:24:45.589Z,2.15
2023-01-29T07:27:20.260Z,2.42
2023-01-29T07:29:47.070Z,2.10
2023-01-29T07:32:17.647Z,2.28
2023-01-29T07:34:48.633Z,3.07
2023-01-29T07:37:15.485Z,2.30
2023-01-29T07:39:42.300Z,2.47
2023-01-29T07:42:12.709Z,2.72
2023-01-29T07:44:43.150Z,2.03
2023-01-29T07:47:14.750Z,2.60
2023-01-29T07:49:42.420Z,2.17
2023-01-29T07:52:13.617Z,2.17
2023-01-29T07:54:40.301Z,2.78
2023-01-29T07:57:06.948Z,2.58
2023-01-29T07:59:36.869Z,1.95
2023-01-29T08:02:03.592Z,2.17
2023-01-29T08:04:30.271Z,2.25
2023-01-29T08:07:02.634Z,2.53
2023-01-29T08:09:29.587Z,2.65
2023-01-29T08:11:56.522Z,2.08
2023-01-29T08:14:24.095Z,1.95
2023-01-29T08:16:51.220Z,1.45
2023-01-29T08:19:20.196Z,2.13
2023-01-29T08:21:47.025Z,2.60
2023-01-29T08:24:13.819Z,1.95
2023-01-29T08:26:40.559Z,3.33
2023-01-29T08:29:07.335Z,2.08
2023-01-29T08:31:37.660Z,2.45
2023-01-29T08:34:04.721Z,2.40
2023-01-29T08:36:31.517Z,2.45
2023-01-29T08:38:58.319Z,1.83
2023-01-29T08:41:25.139Z,2.50
2023-01-29T08:43:55.251Z,1.77
2023-01-29T08:46:22.080Z,1.80
2023-01-29T08:48:48.972Z,2.05
2023-01-29T08:51:18.969Z,2.17
2023-01-29T08:53:45.780Z,2.15
2023-01-29T08:56:12.485Z,1.83
2023-01-29T08:58:41.391Z,1.85
2023-01-29T09:01:10.610Z,2.13
2023-01-29T09:03:41.094Z,2.53
2023-01-29T09:06:10.519Z,1.47
2023-01-29T09:08:37.535Z,1.35
2023-01-29T09:11:04.374Z,1.98
2023-01-29T09:13:31.063Z,2.08
2023-01-29T09:16:02.245Z,2.38
2023-01-29T09:18:30.558Z,2.38
2023-01-29T09:20:58.529Z,1.67
2023-01-29T09:23:25.957Z,1.73
2023-01-29T09:25:57.771Z,1.92
2023-01-29T09:28:26.106Z,2.53
2023-01-29T09:31:01.008Z,2.00
2023-01-29T09:33:40.971Z,2.05
2023-01-29T09:36:13.487Z,2.22
2023-01-29T09:38:40.356Z,2.20
2023-01-29T09:41:27.453Z,1.88
2023-01-29T09:44:03.985Z,1.88
2023-01-29T09:46:36.280Z,2.08
2023-01-29T09:49:21.189Z,1.60
2023-01-29T09:51:59.054Z,1.38
2023-01-29T09:54:52.935Z,1.80
2023-01-29T09:57:42.412Z,2.00
2023-01-29T10:00:20.606Z,2.40
2023-01-29T10:02:59.773Z,2.25
2023-01-29T10:05:44.598Z,1.83
2023-01-29T10:08:41.274Z,2.13
2023-01-29T10:11:17.771Z,1.45
2023-01-29T10:13:55.690Z,1.77
2023-01-29T10:16:52.938Z,2.17
2023-01-29T10:19:21.063Z,1.45
2023-01-29T10:22:02.250Z,1.95
2023-01-29T10:24:36.928Z,2.95
2023-01-29T10:27:09.544Z,1.90
2023-01-29T10:29:36.418Z,1.73
2023-01-29T10:32:06.152Z,1.27
2023-01-29T10:34:45.794Z,1.83
2023-01-29T10:37:26.503Z,1.83
2023-01-29T10:39:53.349Z,2.07
2023-01-29T10:42:33.198Z,1.77
2023-01-29T10:45:24.203Z,1.88
2023-01-29T10:48:15.293Z,1.92
2023-01-29T10:50:52.896Z,1.83
2023-01-29T10:53:25.807Z,1.90
2023-01-29T10:56:25.844Z,2.20
2023-01-29T10:58:56.729Z,2.20
2023-01-29T11:01:23.988Z,1.70
2023-01-29T11:04:01.801Z,1.50
2023-01-29T11:06:34.928Z,2.45
2023-01-29T11:09:25.014Z,1.30
2023-01-29T11:12:05.852Z,1.30
2023-01-29T11:14:58.567Z,2.10
2023-01-29T11:17:26.573Z,1.58
2023-01-29T11:19:57.922Z,1.35
2023-01-29T11:22:27.329Z,1.55
2023-01-29T11:25:18.983Z,1.90
2023-01-29T11:27:56.997Z,2.72
2023-01-29T11:30:46.445Z,2.45
2023-01-29T11:33:21.957Z,1.75
2023-01-29T11:35:49.093Z,2.20
2023-01-29T11:38:15.951Z,2.45
2023-01-29T11:40:43.671Z,2.20
2023-01-29T11:43:21.203Z,2.03
2023-01-29T11:45:57.741Z,2.40
2023-01-29T11:48:33.248Z,2.20
2023-01-29T11:51:01.679Z,1.83
2023-01-29T11:53:44.083Z,2.20
2023-01-29T11:56:39.526Z,2.83
2023-01-29T11:59:08.548Z,2.20
2023-01-29T12:01:40.891Z,2.00
2023-01-29T12:04:21.894Z,1.98
2023-01-29T12:06:52.667Z,2.15
2023-01-29T12:09:27.497Z,2.50
2023-01-29T12:11:54.788Z,2.28
2023-01-29T12:14:34.421Z,2.08
2023-01-29T12:17:14.127Z,2.15
2023-01-29T12:19:44.299Z,2.75
2023-01-29T12:22:48.805Z,2.92
2023-01-29T12:25:23.829Z,2.15
2023-01-29T12:28:17.270Z,1.77
2023-01-29T12:31:15.949Z,2.00
2023-01-29T12:33:52.851Z,1.85
2023-01-29T12:36:35.288Z,1.90
2023-01-29T12:39:02.118Z,2.22
2023-01-29T12:41:36.685Z,1.48
2023-01-29T12:44:12.878Z,1.58
2023-01-29T12:46:50.773Z,1.60
2023-01-29T12:49:24.408Z,1.58
2023-01-29T12:51:54.672Z,1.92
2023-01-29T12:54:43.163Z,2.28
2023-01-29T12:57:41.438Z,1.83
2023-01-29T13:00:18.730Z,2.33
2023-01-29T13:03:00.796Z,2.75
2023-01-29T13:05:34.351Z,1.98
2023-01-29T13:08:10.070Z,2.35
2023-01-29T13:10:41.175Z,1.85
2023-01-29T13:13:34.628Z,1.83
2023-01-29T13:16:04.606Z,2.60
2023-01-29T13:18:47.981Z,1.60
2023-01-29T13:21:40.269Z,1.88
2023-01-29T13:24:23.333Z,1.65
2023-01-29T13:26:50.499Z,2.08
2023-01-29T13:29:30.996Z,2.22
2023-01-29T13:32:05.160Z,2.05
2023-01-29T13:34:53.604Z,1.88
2023-01-29T13:37:31.136Z,1.83
2023-01-29T13:40:00.158Z,2.33
2023-01-29T13:42:45.531Z,2.00
2023-01-29T13:45:21.832Z,2.50
2023-01-29T13:47:49.972Z,2.15
2023-01-29T13:50:39.842Z,10.60
2023-01-29T13:53:08.927Z,4.15
2023-01-29T13:55:40.000Z,3.95
2023-01-29T13:58:15.090Z,1.55
2023-01-29T14:00:48.419Z,1.42
2023-01-29T14:03:15.012Z,2.00
2023-01-29T14:05:57.528Z,1.75
2023-01-29T14:08:44.854Z,1.95
2023-01-29T14:11:17.805Z,1.52
2023-01-29T14:13:49.081Z,1.80
2023-01-29T14:16:15.718Z,2.45
2023-01-29T14:18:55.510Z,3.38
2023-01-29T14:21:30.546Z,2.20
2023-01-29T14:24:19.760Z,1.63
2023-01-29T14:26:48.722Z,1.65
2023-01-29T14:29:29.049Z,2.03
2023-01-29T14:32:06.432Z,1.83
2023-01-29T14:34:36.980Z,2.10
2023-01-29T14:37:16.086Z,3.23
2023-01-29T14:39:51.717Z,2.50
2023-01-29T14:42:41.037Z,3.40
2023-01-29T14:45:26.209Z,2.10
2023-01-29T14:47:55.760Z,2.58
2023-01-29T14:50:32.032Z,1.48
2023-01-29T14:53:13.560Z,2.63
2023-01-29T14:55:45.100Z,1.55
2023-01-29T15:00:50.515Z,2.05
2023-01-29T15:03:39.826Z,1.88
2023-01-29T15:06:08.210Z,1.92
2023-01-29T15:08:47.071Z,1.70
2023-01-29T15:11:34.523Z,1.95
2023-01-29T15:14:14.397Z,1.90
2023-01-29T15:16:59.679Z,2.50
2023-01-29T15:19:34.817Z,2.28
2023-01-29T15:22:10.459Z,2.00
2023-01-29T15:24:39.404Z,2.30
2023-01-29T15:27:09.876Z,2.05
2023-01-29T15:29:38.213Z,2.00
2023-01-29T15:32:06.477Z,1.98
2023-01-29T15:34:36.928Z,2.00
2023-01-29T15:37:06.869Z,2.28
2023-01-29T15:39:44.333Z,2.70
2023-01-29T15:42:16.078Z,2.10
2023-01-29T15:44:46.787Z,2.65
2023-01-29T15:47:14.844Z,1.70
2023-01-29T15:49:42.376Z,2.28
2023-01-29T15:52:33.075Z,2.15
2023-01-29T15:55:05.713Z,2.45
2023-01-29T15:57:40.784Z,2.20
2023-01-29T16:00:25.050Z,2.30
2023-01-29T16:02:52.295Z,2.28
2023-01-29T16:05:33.137Z,2.70
2023-01-29T16:08:00.921Z,1.90
2023-01-29T16:10:31.096Z,2.38
2023-01-29T16:12:58.936Z,2.63
2023-01-29T16:15:36.964Z,2.10
2023-01-29T16:18:19.624Z,2.33
2023-01-29T16:20:54.074Z,2.38
2023-01-29T16:23:28.307Z,2.50
2023-01-29T16:26:01.952Z,2.17
2023-01-29T16:28:28.984Z,2.70
2023-01-29T16:30:59.042Z,3.17
2023-01-29T16:33:34.075Z,2.85
2023-01-29T16:36:00.811Z,2.83
2023-01-29T16:38:31.659Z,2.70
2023-01-29T16:41:15.875Z,2.42
2023-01-29T16:43:48.454Z,2.45
2023-01-29T16:46:26.962Z,3.78
2023-01-29T16:48:54.293Z,2.90
2023-01-29T16:51:22.478Z,2.92
2023-01-29T16:54:07.299Z,2.83
2023-01-29T16:56:34.871Z,2.80
2023-01-29T16:59:04.516Z,3.10
2023-01-29T17:01:32.242Z,2.90
2023-01-29T17:04:13.966Z,3.22
2023-01-29T17:06:44.608Z,2.80
2023-01-29T17:09:32.559Z,2.00
2023-01-29T17:12:03.496Z,2.65
2023-01-29T17:14:32.602Z,2.67
2023-01-29T17:17:05.723Z,2.90
2023-01-29T17:19:32.714Z,3.10
2023-01-29T17:22:00.134Z,2.67
2023-01-29T17:24:27.010Z,2.42
2023-01-29T17:26:54.302Z,2.88
2023-01-29T17:29:24.480Z,2.83
2023-01-29T17:31:51.246Z,2.95
2023-01-29T17:34:18.654Z,2.92
2023-01-29T17:36:45.958Z,3.08
2023-01-29T17:39:24.231Z,2.55
2023-01-29T17:41:53.818Z,2.55
2023-01-29T17:44:21.172Z,2.30
2023-01-29T17:46:48.353Z,1.60
2023-01-29T17:49:28.620Z,2.38
2023-01-29T17:51:56.596Z,2.90
2023-01-29T17:54:24.243Z,2.35
2023-01-29T17:56:52.416Z,2.50
2023-01-29T17:59:22.002Z,2.63
2023-01-29T18:01:50.212Z,3.13
2023-01-29T18:04:17.863Z,2.72
2023-01-29T18:06:47.177Z,2.78
2023-01-29T18:09:15.591Z,2.50
2023-01-29T18:11:43.095Z,2.47
2023-01-29T18:14:14.338Z,2.55
2023-01-29T18:19:31.079Z,2.05
2023-01-29T18:21:58.851Z,2.75
2023-01-29T18:24:26.786Z,3.00
2023-01-29T18:26:53.725Z,3.25
2023-01-29T18:29:20.453Z,3.03
2023-01-29T18:31:49.388Z,3.42
2023-01-29T18:34:16.255Z,3.05
2023-01-29T18:36:47.737Z,3.22
2023-01-29T18:39:15.442Z,3.05
2023-01-29T18:41:42.529Z,3.33
2023-01-29T18:44:10.785Z,3.08
2023-01-29T18:46:37.535Z,3.13
2023-01-29T18:49:05.204Z,3.22
2023-01-29T18:51:31.985Z,3.67
2023-01-29T18:53:58.673Z,3.05
2023-01-29T18:56:25.609Z,3.55
2023-01-29T18:58:55.590Z,3.65
2023-01-29T19:01:23.661Z,3.58
2023-01-29T19:03:50.818Z,4.40
2023-01-29T19:06:17.634Z,3.17
2023-01-29T19:08:44.724Z,3.63
2023-01-29T19:11:12.642Z,3.35
2023-01-29T19:13:40.529Z,3.47
2023-01-29T19:16:12.068Z,4.78
2023-01-29T19:21:08.309Z,3.75
2023-01-29T19:23:35.261Z,4.00
2023-01-29T19:26:02.179Z,3.80
2023-01-29T19:28:29.112Z,4.38
2023-01-29T19:31:00.402Z,4.18
2023-01-29T19:33:30.393Z,4.70
2023-01-29T19:35:58.565Z,4.25
2023-01-29T19:38:26.123Z,4.47
2023-01-29T19:40:53.095Z,3.50
2023-01-29T19:43:20.141Z,4.68
2023-01-29T19:45:53.738Z,4.32
2023-01-29T19:48:21.823Z,4.47
2023-01-29T19:51:04.489Z,3.90
2023-01-29T19:53:32.055Z,5.00
2023-01-29T19:56:00.162Z,4.65
2023-01-29T19:58:27.851Z,4.10
2023-01-29T20:01:00.178Z,4.22
2023-01-29T20:03:29.300Z,4.40
2023-01-29T20:06:01.260Z,4.25
2023-01-29T20:08:27.992Z,5.22
2023-01-29T20:10:54.634Z,4.43
2023-01-29T20:13:21.631Z,5.90
2023-01-29T20:15:50.107Z,4.13
2023-01-29T20:18:17.804Z,4.32
2023-01-29T20:20:47.301Z,4.10
2023-01-29T20:23:27.977Z,4.03
2023-01-29T20:26:03.147Z,4.78
2023-01-29T20:28:29.981Z,5.45
2023-01-29T20:30:58.217Z,5.18
2023-01-29T20:33:25.991Z,3.42
2023-01-29T20:36:01.172Z,4.47
2023-01-29T20:38:31.790Z,3.60
2023-01-29T20:41:14.952Z,4.15
2023-01-29T20:43:42.535Z,3.08
2023-01-29T20:46:09.941Z,3.33
2023-01-29T20:48:37.664Z,2.97
2023-01-29T20:51:09.874Z,3.35
2023-01-29T20:53:37.385Z,4.55
2023-01-29T20:56:04.795Z,2.83
2023-01-29T20:58:31.991Z,3.20
2023-01-29T21:00:59.121Z,3.03
2023-01-29T21:03:25.850Z,2.50
2023-01-29T21:05:54.260Z,2.45
2023-01-29T21:08:21.055Z,2.50
2023-01-29T21:10:50.052Z,2.72
2023-01-29T21:13:16.752Z,2.53
2023-01-29T21:15:44.283Z,2.80
2023-01-29T21:18:11.565Z,2.05
2023-01-29T21:20:38.301Z,1.65
2023-01-29T21:23:07.034Z,2.10
2023-01-29T21:25:34.204Z,1.63
2023-01-29T21:28:02.788Z,1.50
2023-01-29T21:30:29.759Z,1.35
2023-01-29T21:32:56.629Z,1.17
2023-01-29T21:35:23.301Z,1.83
2023-01-29T21:37:49.995Z,1.35
2023-01-29T21:40:17.491Z,1.55
2023-01-29T21:43:02.840Z,1.90
2023-01-29T21:45:29.520Z,1.33
2023-01-29T21:47:56.177Z,1.52
2023-01-29T21:50:22.875Z,1.15
2023-01-29T21:52:49.555Z,0.98
2023-01-29T21:55:16.370Z,1.58
2023-01-29T21:57:46.644Z,1.40
2023-01-29T22:00:14.118Z,1.20
2023-01-29T22:02:41.185Z,1.60
2023-01-29T22:05:18.909Z,1.42
2023-01-29T22:07:46.718Z,1.30
2023-01-29T22:10:13.724Z,1.10
2023-01-29T22:12:40.627Z,1.50
2023-01-29T22:15:08.646Z,1.42
2023-01-29T22:17:35.382Z,1.10
2023-01-29T22:20:02.333Z,1.40
2023-01-29T22:22:29.067Z,1.40
2023-01-29T22:24:57.661Z,1.15
2023-01-29T22:27:24.668Z,1.23
2023-01-29T22:29:51.450Z,0.90
2023-01-29T22:32:18.199Z,1.08
2023-01-29T22:34:44.945Z,1.85
2023-01-29T22:37:11.625Z,1.00
2023-01-29T22:39:38.293Z,1.42
2023-01-29T22:42:05.135Z,1.30
2023-01-29T22:44:31.824Z,1.38
2023-01-29T22:46:58.619Z,0.95
2023-01-29T22:49:25.777Z,1.50
2023-01-29T22:52:10.043Z,1.30
2023-01-29T22:54:41.251Z,1.10
2023-01-29T22:57:13.346Z,1.30
2023-01-29T22:59:40.344Z,1.65
2023-01-29T23:02:08.494Z,1.20
2023-01-29T23:04:35.475Z,1.38
2023-01-29T23:07:02.278Z,1.35
2023-01-29T23:09:29.309Z,1.40
2023-01-29T23:11:56.068Z,1.33
2023-01-29T23:14:22.779Z,1.98
2023-01-29T23:16:49.455Z,1.65
2023-01-29T23:19:16.140Z,1.00
2023-01-29T23:21:42.846Z,1.85
2023-01-29T23:24:10.120Z,1.70
2023-01-29T23:26:55.313Z,2.20
2023-01-29T23:29:22.011Z,2.20
2023-01-29T23:31:48.778Z,2.47
2023-01-29T23:34:15.932Z,2.85
2023-01-29T23:36:42.992Z,2.80
2023-01-29T23:39:10.114Z,3.15
2023-01-29T23:41:37.197Z,2.80
2023-01-29T23:44:04.384Z,3.85
2023-01-29T23:46:31.517Z,3.30
2023-01-29T23:48:58.504Z,3.97
2023-01-29T23:51:25.386Z,4.20
2023-01-29T23:53:52.110Z,4.20
2023-01-29T23:56:19.022Z,4.07
2023-01-29T23:58:46.252Z,4.53
